Time;durP1;ratioP1;P1;durP2;ratioP2;P2;SDS_P1;SDS_P2;PMS_P1;PMS_P2;Temp;Humidity;BMP_temperature;BMP_pressure;BME280_temperature;BME280_humidity;BME280_pressure;Samples;Min_cycle;Max_cycle;Signal;HPM_P1;HPM_P2
2022/06/19 00:01:20;;;;;;;;;;;27.70;48.40;;;;;;5038458;28;19940;-68
2022/06/19 00:03:48;;;;;;;;;;;27.60;48.40;;;;;;5040099;28;19967;-72
2022/06/19 00:06:15;;;;;;;;;;;27.60;48.60;;;;;;5041196;28;19936;-71
2022/06/19 00:08:42;;;;;;;;;;;27.60;48.60;;;;;;5038083;28;19935;-70
2022/06/19 00:11:11;;;;;;;;;;;27.50;48.70;;;;;;5038195;28;19975;-71
2022/06/19 00:13:38;;;;;;;;;;;27.50;48.70;;;;;;5036725;28;20657;-68
2022/06/19 00:16:05;;;;;;;;;;;27.40;48.70;;;;;;5040009;28;19937;-71
2022/06/19 00:18:31;;;;;;;;;;;27.40;48.80;;;;;;5043730;28;19937;-68
2022/06/19 00:20:58;;;;;;;;;;;27.40;48.90;;;;;;5038825;28;19937;-69
2022/06/19 00:23:24;;;;;;;;;;;27.30;48.90;;;;;;5041846;28;19936;-68
2022/06/19 00:25:51;;;;;;;;;;;27.30;48.90;;;;;;5039904;28;19933;-68
2022/06/19 00:28:19;;;;;;;;;;;27.20;48.90;;;;;;5039140;28;19929;-72
2022/06/19 00:30:45;;;;;;;;;;;27.20;48.90;;;;;;5042148;28;19932;-72
2022/06/19 00:33:12;;;;;;;;;;;27.20;48.90;;;;;;5038468;28;19963;-71
2022/06/19 00:35:39;;;;;;;;;;;27.10;49.00;;;;;;5041727;28;20494;-70
2022/06/19 00:38:05;;;;;;;;;;;27.10;49.00;;;;;;5038096;28;19939;-70
2022/06/19 00:40:32;;;;;;;;;;;27.00;49.20;;;;;;5041478;28;19933;-68
2022/06/19 00:42:59;;;;;;;;;;;27.00;49.40;;;;;;5042490;28;20510;-69
2022/06/19 00:45:32;;;;;;;;;;;26.90;49.30;;;;;;5041250;28;19929;-70
2022/06/19 00:48:01;;;;;;;;;;;26.90;49.40;;;;;;5042826;28;19936;-69
2022/06/19 00:50:28;;;;;;;;;;;26.90;49.50;;;;;;5044979;28;19928;-69
2022/06/19 00:52:55;;;;;;;;;;;26.90;49.50;;;;;;5038347;28;19928;-68
2022/06/19 00:55:23;;;;;;;;;;;26.80;49.60;;;;;;5041251;28;19928;-68
2022/06/19 00:57:51;;;;;;;;;;;26.80;49.60;;;;;;5042714;28;19936;-68
2022/06/19 01:00:24;;;;;;;;;;;26.80;49.60;;;;;;5041369;28;19937;-68
2022/06/19 01:02:53;;;;;;;;;;;26.70;49.70;;;;;;5040826;28;19979;-68
2022/06/19 01:05:20;;;;;;;;;;;26.70;49.80;;;;;;5042181;28;19928;-69
2022/06/19 01:07:46;;;;;;;;;;;26.60;49.80;;;;;;5042451;28;19982;-72
2022/06/19 01:10:14;;;;;;;;;;;26.60;49.90;;;;;;5037792;28;19937;-68
2022/06/19 01:12:41;;;;;;;;;;;26.60;50.10;;;;;;5039140;28;19929;-72
2022/06/19 01:15:10;;;;;;;;;;;26.50;50.00;;;;;;5043767;28;19936;-70
2022/06/19 01:17:36;;;;;;;;;;;26.50;50.00;;;;;;5041019;28;19936;-69
2022/06/19 01:20:06;;;;;;;;;;;26.40;50.00;;;;;;5044862;28;19929;-68
2022/06/19 01:22:36;;;;;;;;;;;26.40;50.20;;;;;;5041779;28;19933;-68
2022/06/19 01:25:07;;;;;;;;;;;26.40;50.40;;;;;;5039679;28;19929;-68
2022/06/19 01:30:19;;;;;;;;;;;26.30;50.50;;;;;;5041975;28;19936;-68
2022/06/19 01:32:47;;;;;;;;;;;26.20;50.50;;;;;;5042352;28;19932;-71
2022/06/19 01:35:14;;;;;;;;;;;26.20;50.70;;;;;;5042799;28;19929;-69
2022/06/19 01:37:41;;;;;;;;;;;26.10;50.90;;;;;;5043923;28;19955;-72
2022/06/19 01:40:12;;;;;;;;;;;26.10;51.10;;;;;;5043380;28;19940;-69
2022/06/19 01:42:39;;;;;;;;;;;26.10;51.20;;;;;;5044446;28;20500;-69
2022/06/19 01:45:07;;;;;;;;;;;26.10;51.20;;;;;;5042948;28;19940;-69
2022/06/19 01:47:33;;;;;;;;;;;26.00;51.10;;;;;;5044952;28;19929;-69
2022/06/19 01:50:00;;;;;;;;;;;26.00;51.20;;;;;;5047051;28;19939;-70
2022/06/19 01:52:29;;;;;;;;;;;25.90;51.20;;;;;;5041862;28;19929;-68
2022/06/19 01:54:59;;;;;;;;;;;25.90;51.30;;;;;;5043199;28;20014;-68
2022/06/19 01:57:27;;;;;;;;;;;25.90;51.30;;;;;;5044133;28;19933;-69
2022/06/19 01:59:54;;;;;;;;;;;25.80;51.30;;;;;;5044538;28;19932;-68
2022/06/19 02:02:23;;;;;;;;;;;25.80;51.40;;;;;;5042086;28;19940;-67
2022/06/19 02:04:51;;;;;;;;;;;25.80;51.50;;;;;;5043569;28;20061;-67
2022/06/19 02:07:20;;;;;;;;;;;25.70;51.50;;;;;;5042451;28;19936;-68
2022/06/19 02:09:47;;;;;;;;;;;25.70;51.60;;;;;;4981575;28;1734252;-70
2022/06/19 02:12:14;;;;;;;;;;;25.60;51.70;;;;;;5042520;28;19987;-68
2022/06/19 02:14:42;;;;;;;;;;;25.60;51.80;;;;;;5044393;28;19928;-71
2022/06/19 02:17:11;;;;;;;;;;;25.60;51.90;;;;;;5042906;28;19929;-67
2022/06/19 02:19:38;;;;;;;;;;;25.50;51.90;;;;;;5042587;28;21081;-68
2022/06/19 02:22:10;;;;;;;;;;;25.50;51.90;;;;;;5040278;28;19932;-69
2022/06/19 02:24:38;;;;;;;;;;;25.40;51.80;;;;;;5044166;28;20015;-67
2022/06/19 02:27:05;;;;;;;;;;;25.40;51.90;;;;;;5042569;28;19929;-69
2022/06/19 02:29:32;;;;;;;;;;;25.40;52.20;;;;;;5044103;28;20166;-67
2022/06/19 02:32:00;;;;;;;;;;;25.40;52.10;;;;;;5044230;28;19928;-70
2022/06/19 02:34:27;;;;;;;;;;;25.30;52.10;;;;;;5043529;28;20413;-68
2022/06/19 02:36:56;;;;;;;;;;;25.30;52.20;;;;;;5042994;28;20907;-69
2022/06/19 02:39:28;;;;;;;;;;;25.30;52.30;;;;;;5043453;28;19932;-70
2022/06/19 02:42:00;;;;;;;;;;;25.20;52.30;;;;;;5044507;28;19940;-69
2022/06/19 02:44:30;;;;;;;;;;;25.20;52.30;;;;;;5044317;28;19929;-67
2022/06/19 02:46:57;;;;;;;;;;;25.20;52.30;;;;;;5043363;28;19928;-69
2022/06/19 02:49:25;;;;;;;;;;;25.10;52.20;;;;;;5043266;28;19928;-68
2022/06/19 02:51:51;;;;;;;;;;;25.10;52.20;;;;;;5041682;28;19929;-69
2022/06/19 02:54:18;;;;;;;;;;;25.10;52.40;;;;;;5043702;28;19933;-70
2022/06/19 02:56:44;;;;;;;;;;;25.00;52.30;;;;;;5041333;28;19928;-71
2022/06/19 02:59:11;;;;;;;;;;;25.00;52.30;;;;;;5043467;28;19955;-70
2022/06/19 03:01:37;;;;;;;;;;;25.00;52.40;;;;;;5042125;28;19932;-68
2022/06/19 03:04:04;;;;;;;;;;;25.00;52.50;;;;;;5043067;28;19936;-71
2022/06/19 03:06:32;;;;;;;;;;;24.90;52.40;;;;;;5042034;28;19932;-68
2022/06/19 03:08:59;;;;;;;;;;;24.90;52.40;;;;;;5042619;28;19933;-68
2022/06/19 03:11:25;;;;;;;;;;;24.80;52.40;;;;;;5043434;28;19936;-68
2022/06/19 03:13:52;;;;;;;;;;;24.80;52.50;;;;;;5038913;28;19936;-68
2022/06/19 03:16:19;;;;;;;;;;;24.80;52.40;;;;;;5042851;28;20340;-68
2022/06/19 03:18:46;;;;;;;;;;;24.80;52.40;;;;;;5043944;28;19929;-72
2022/06/19 03:21:13;;;;;;;;;;;24.80;52.40;;;;;;5041170;28;19936;-70
2022/06/19 03:23:40;;;;;;;;;;;24.70;52.40;;;;;;5038239;28;19929;-69
2022/06/19 03:26:07;;;;;;;;;;;24.70;52.60;;;;;;5040879;28;21776;-67
2022/06/19 03:28:33;;;;;;;;;;;24.70;52.50;;;;;;5040360;28;20304;-68
2022/06/19 03:31:00;;;;;;;;;;;24.60;52.40;;;;;;5044525;28;20408;-70
2022/06/19 03:33:27;;;;;;;;;;;24.70;52.60;;;;;;5044385;28;19932;-67
2022/06/19 03:35:53;;;;;;;;;;;24.50;52.60;;;;;;5042446;28;19932;-69
2022/06/19 03:38:20;;;;;;;;;;;24.50;52.70;;;;;;5039929;28;19928;-68
2022/06/19 03:40:48;;;;;;;;;;;24.50;52.80;;;;;;5043897;28;19932;-71
2022/06/19 03:43:14;;;;;;;;;;;24.50;52.90;;;;;;5042323;28;19929;-72
2022/06/19 03:45:41;;;;;;;;;;;24.50;53.00;;;;;;5039389;28;19929;-69
2022/06/19 03:48:09;;;;;;;;;;;24.40;53.10;;;;;;5040041;28;19936;-68
2022/06/19 03:50:35;;;;;;;;;;;24.40;53.10;;;;;;5038107;28;19928;-69
2022/06/19 03:53:02;;;;;;;;;;;24.40;53.10;;;;;;5043181;28;19932;-68
2022/06/19 03:55:29;;;;;;;;;;;24.40;53.10;;;;;;5042152;28;19944;-72
2022/06/19 03:57:56;;;;;;;;;;;24.30;53.20;;;;;;5042464;28;19948;-68
2022/06/19 04:00:23;;;;;;;;;;;24.30;53.30;;;;;;5042278;28;19929;-69
2022/06/19 04:02:50;;;;;;;;;;;24.30;53.30;;;;;;5041311;28;19941;-68
2022/06/19 04:05:18;;;;;;;;;;;24.30;53.40;;;;;;5044646;28;19935;-71
2022/06/19 04:07:45;;;;;;;;;;;24.30;53.50;;;;;;5036399;28;20632;-70
2022/06/19 04:10:13;;;;;;;;;;;24.20;53.40;;;;;;5036811;28;19939;-68
2022/06/19 04:12:39;;;;;;;;;;;24.20;53.60;;;;;;5036610;28;19929;-70
2022/06/19 04:15:09;;;;;;;;;;;24.20;53.60;;;;;;5040745;28;19933;-69
2022/06/19 04:17:36;;;;;;;;;;;24.20;53.70;;;;;;5039879;28;19994;-69
2022/06/19 04:20:02;;;;;;;;;;;24.20;53.80;;;;;;5041357;28;19932;-68
2022/06/19 04:22:29;;;;;;;;;;;24.20;53.80;;;;;;5042769;28;19932;-68
2022/06/19 04:24:56;;;;;;;;;;;24.10;53.80;;;;;;5035792;28;19928;-68
2022/06/19 04:27:23;;;;;;;;;;;24.10;53.90;;;;;;5041200;28;19933;-69
2022/06/19 04:29:50;;;;;;;;;;;24.10;54.00;;;;;;5042986;28;19929;-67
2022/06/19 04:32:18;;;;;;;;;;;24.10;54.00;;;;;;5034375;28;20406;-72
2022/06/19 04:34:44;;;;;;;;;;;24.00;54.00;;;;;;5046702;28;20308;-71
2022/06/19 04:37:11;;;;;;;;;;;24.00;54.20;;;;;;5040711;28;19928;-71
2022/06/19 04:39:37;;;;;;;;;;;24.00;54.30;;;;;;5040419;28;19935;-68
2022/06/19 04:42:06;;;;;;;;;;;24.00;54.40;;;;;;5041065;28;20415;-68
2022/06/19 04:44:32;;;;;;;;;;;24.00;54.50;;;;;;5041778;28;19928;-67
2022/06/19 04:46:59;;;;;;;;;;;23.90;54.50;;;;;;5037186;28;19939;-69
2022/06/19 04:49:27;;;;;;;;;;;23.90;54.70;;;;;;5043271;28;19971;-69
2022/06/19 04:51:53;;;;;;;;;;;23.90;54.80;;;;;;5040706;28;19963;-69
2022/06/19 04:54:20;;;;;;;;;;;23.90;54.90;;;;;;5039224;28;19929;-70
2022/06/19 04:56:46;;;;;;;;;;;23.90;55.00;;;;;;5044605;28;20475;-71
2022/06/19 04:59:13;;;;;;;;;;;23.90;55.00;;;;;;5043104;28;20357;-68
2022/06/19 05:01:40;;;;;;;;;;;23.80;55.00;;;;;;5038534;28;20347;-69
2022/06/19 05:04:08;;;;;;;;;;;23.80;55.00;;;;;;5042150;28;19932;-68
2022/06/19 05:06:36;;;;;;;;;;;23.80;55.00;;;;;;5040217;28;19974;-71
2022/06/19 05:09:03;;;;;;;;;;;23.80;54.90;;;;;;5039906;28;19984;-67
2022/06/19 05:11:31;;;;;;;;;;;23.80;54.90;;;;;;5040025;28;19936;-69
2022/06/19 05:13:58;;;;;;;;;;;23.80;54.90;;;;;;5036127;28;19929;-68
2022/06/19 05:16:25;;;;;;;;;;;23.80;55.00;;;;;;5040676;28;19932;-67
2022/06/19 05:18:53;;;;;;;;;;;23.80;55.00;;;;;;5043730;28;19928;-69
2022/06/19 05:21:19;;;;;;;;;;;23.80;55.10;;;;;;5040786;28;20047;-68
2022/06/19 05:23:48;;;;;;;;;;;23.80;55.00;;;;;;5037436;28;19929;-69
2022/06/19 05:26:16;;;;;;;;;;;23.80;55.00;;;;;;5038901;28;19933;-70
2022/06/19 05:28:43;;;;;;;;;;;23.80;55.00;;;;;;5041612;28;20067;-69
2022/06/19 05:31:09;;;;;;;;;;;23.90;55.00;;;;;;5039641;28;19925;-72
2022/06/19 05:33:36;;;;;;;;;;;23.90;55.00;;;;;;5041979;28;19933;-69
2022/06/19 05:36:03;;;;;;;;;;;23.80;55.00;;;;;;5040825;28;19936;-67
2022/06/19 05:38:30;;;;;;;;;;;23.90;55.10;;;;;;5039051;28;19943;-69
2022/06/19 05:40:59;;;;;;;;;;;23.90;55.10;;;;;;5041817;28;20317;-68
2022/06/19 05:43:26;;;;;;;;;;;23.90;55.10;;;;;;5040675;28;19929;-68
2022/06/19 05:45:53;;;;;;;;;;;23.90;55.20;;;;;;5040919;28;19936;-68
2022/06/19 05:48:20;;;;;;;;;;;23.90;55.40;;;;;;5038348;28;20860;-69
2022/06/19 05:50:56;;;;;;;;;;;23.90;55.50;;;;;;5042665;28;20677;-72
2022/06/19 05:53:22;;;;;;;;;;;24.00;55.60;;;;;;5038841;28;19928;-69
2022/06/19 05:55:49;;;;;;;;;;;24.00;55.60;;;;;;5040605;28;19933;-69
2022/06/19 05:58:17;;;;;;;;;;;24.00;55.70;;;;;;5039283;28;20282;-71
2022/06/19 06:00:43;;;;;;;;;;;24.00;55.70;;;;;;5043756;28;20742;-69
2022/06/19 06:03:12;;;;;;;;;;;24.00;56.40;;;;;;5043782;28;19937;-71
2022/06/19 06:05:39;;;;;;;;;;;24.00;56.60;;;;;;5042833;28;19940;-70
2022/06/19 06:08:05;;;;;;;;;;;24.00;56.50;;;;;;5043359;28;19940;-69
2022/06/19 06:10:32;;;;;;;;;;;24.00;56.40;;;;;;5044504;28;20019;-68
2022/06/19 06:12:59;;;;;;;;;;;24.10;56.40;;;;;;5041745;28;19933;-68
2022/06/19 06:15:26;;;;;;;;;;;24.10;56.60;;;;;;5040012;28;19929;-69
2022/06/19 06:17:53;;;;;;;;;;;24.10;56.50;;;;;;5044829;28;19933;-70
2022/06/19 06:20:19;;;;;;;;;;;24.10;56.40;;;;;;5043622;28;19933;-69
2022/06/19 06:22:46;;;;;;;;;;;24.10;56.40;;;;;;5042894;28;19937;-70
2022/06/19 06:25:13;;;;;;;;;;;24.20;56.40;;;;;;5040272;28;19925;-69
2022/06/19 06:27:39;;;;;;;;;;;24.20;56.40;;;;;;5042451;28;20407;-70
2022/06/19 06:30:07;;;;;;;;;;;24.20;56.20;;;;;;5043257;28;19939;-68
2022/06/19 06:32:34;;;;;;;;;;;24.20;56.00;;;;;;5045094;28;19960;-71
2022/06/19 06:35:01;;;;;;;;;;;24.20;55.80;;;;;;5044707;28;19925;-70
2022/06/19 06:37:28;;;;;;;;;;;24.20;55.70;;;;;;5041797;28;19936;-67
2022/06/19 06:39:54;;;;;;;;;;;24.30;55.60;;;;;;5042536;28;19932;-68
2022/06/19 06:42:21;;;;;;;;;;;24.30;55.40;;;;;;5043003;28;20401;-67
2022/06/19 06:44:48;;;;;;;;;;;24.40;54.00;;;;;;5044941;28;20337;-69
2022/06/19 06:47:14;;;;;;;;;;;24.40;54.10;;;;;;5045800;28;19932;-71
2022/06/19 06:49:42;;;;;;;;;;;24.40;54.20;;;;;;5042600;28;19925;-69
2022/06/19 06:52:09;;;;;;;;;;;24.50;54.50;;;;;;5044234;28;20012;-69
2022/06/19 06:54:37;;;;;;;;;;;24.50;54.40;;;;;;5044391;28;19932;-68
2022/06/19 06:57:05;;;;;;;;;;;24.50;54.50;;;;;;5045051;28;19959;-69
2022/06/19 06:59:31;;;;;;;;;;;24.50;54.60;;;;;;5045461;28;19964;-67
2022/06/19 07:01:58;;;;;;;;;;;24.50;54.80;;;;;;5041509;28;19924;-69
2022/06/19 07:04:25;;;;;;;;;;;24.60;54.80;;;;;;5045806;28;20436;-67
2022/06/19 07:06:53;;;;;;;;;;;24.60;54.70;;;;;;5042869;28;19936;-68
2022/06/19 07:09:19;;;;;;;;;;;24.60;54.60;;;;;;5040421;28;19963;-68
2022/06/19 07:11:47;;;;;;;;;;;24.70;55.00;;;;;;5042175;28;19935;-69
2022/06/19 07:14:14;;;;;;;;;;;24.70;54.60;;;;;;5035224;28;20047;-69
2022/06/19 07:16:41;;;;;;;;;;;24.70;54.70;;;;;;5042944;28;19932;-71
2022/06/19 07:19:08;;;;;;;;;;;24.70;54.70;;;;;;5044252;28;20022;-68
2022/06/19 07:21:35;;;;;;;;;;;24.90;55.60;;;;;;5043464;28;20015;-69
2022/06/19 07:24:03;;;;;;;;;;;25.00;55.00;;;;;;5041419;28;19933;-67
2022/06/19 07:26:30;;;;;;;;;;;25.10;54.90;;;;;;5041982;28;19928;-70
2022/06/19 07:28:57;;;;;;;;;;;25.10;54.80;;;;;;5043242;28;19940;-69
2022/06/19 07:31:24;;;;;;;;;;;25.10;54.80;;;;;;5041264;28;19975;-69
2022/06/19 07:33:50;;;;;;;;;;;25.10;54.80;;;;;;5041716;28;19935;-67
2022/06/19 07:36:18;;;;;;;;;;;25.20;54.90;;;;;;5042421;28;19936;-72
2022/06/19 07:38:44;;;;;;;;;;;25.20;55.10;;;;;;5037141;28;19939;-69
2022/06/19 07:41:12;;;;;;;;;;;25.20;55.10;;;;;;5040307;28;19929;-69
2022/06/19 07:43:39;;;;;;;;;;;25.20;55.10;;;;;;5039150;28;20560;-69
2022/06/19 07:46:06;;;;;;;;;;;25.20;55.10;;;;;;5040121;28;19928;-69
2022/06/19 07:51:16;;;;;;;;;;;25.30;55.20;;;;;;5043347;28;20400;-68
2022/06/19 07:53:43;;;;;;;;;;;25.30;55.20;;;;;;5038686;28;20486;-68
2022/06/19 07:56:09;;;;;;;;;;;25.40;55.20;;;;;;5042070;28;19936;-69
2022/06/19 07:58:37;;;;;;;;;;;25.40;55.10;;;;;;5040951;28;19935;-68
2022/06/19 08:01:04;;;;;;;;;;;25.50;55.10;;;;;;5040752;28;19935;-68
2022/06/19 08:03:30;;;;;;;;;;;25.50;55.10;;;;;;5040205;28;19936;-69
2022/06/19 08:05:57;;;;;;;;;;;25.50;55.20;;;;;;5035791;28;19937;-69
2022/06/19 08:08:25;;;;;;;;;;;25.60;55.20;;;;;;5040984;28;19929;-69
2022/06/19 08:10:52;;;;;;;;;;;25.60;55.00;;;;;;5042589;28;19928;-69
2022/06/19 08:13:20;;;;;;;;;;;25.70;54.90;;;;;;5041643;28;20233;-69
2022/06/19 08:15:48;;;;;;;;;;;25.70;54.70;;;;;;5040803;28;20023;-71
2022/06/19 08:18:15;;;;;;;;;;;25.80;54.50;;;;;;5042339;28;19929;-71
2022/06/19 08:20:42;;;;;;;;;;;25.80;54.40;;;;;;5042829;28;20404;-68
2022/06/19 08:23:09;;;;;;;;;;;25.80;54.10;;;;;;5040662;28;20700;-69
2022/06/19 08:25:36;;;;;;;;;;;25.90;54.00;;;;;;5040763;28;19928;-70
2022/06/19 08:28:02;;;;;;;;;;;25.90;53.60;;;;;;5042045;28;19998;-69
2022/06/19 08:30:30;;;;;;;;;;;26.00;53.40;;;;;;5039198;28;19928;-68
2022/06/19 08:32:58;;;;;;;;;;;26.10;53.00;;;;;;5036877;28;20340;-68
2022/06/19 08:35:25;;;;;;;;;;;26.10;52.30;;;;;;5039020;28;19928;-68
2022/06/19 08:37:54;;;;;;;;;;;26.20;51.80;;;;;;5042358;28;19929;-69
2022/06/19 08:40:30;;;;;;;;;;;26.20;51.60;;;;;;5041675;28;19944;-68
2022/06/19 08:43:01;;;;;;;;;;;26.30;51.50;;;;;;5039928;28;19932;-71
2022/06/19 08:45:32;;;;;;;;;;;26.40;51.40;;;;;;5040312;28;19929;-68
2022/06/19 08:48:13;;;;;;;;;;;26.40;51.30;;;;;;5040262;28;19929;-69
2022/06/19 08:50:43;;;;;;;;;;;26.50;51.00;;;;;;5042564;28;19932;-69
2022/06/19 08:53:18;;;;;;;;;;;26.50;50.90;;;;;;5040295;28;19940;-67
2022/06/19 08:55:48;;;;;;;;;;;26.50;50.70;;;;;;5042464;28;19929;-72
2022/06/19 08:58:20;;;;;;;;;;;26.60;50.70;;;;;;5041854;28;19935;-71
2022/06/19 09:00:54;;;;;;;;;;;26.70;50.80;;;;;;5041219;28;20409;-72
2022/06/19 09:03:27;;;;;;;;;;;26.80;50.40;;;;;;5040991;28;19936;-67
2022/06/19 09:05:56;;;;;;;;;;;26.80;50.20;;;;;;5035322;28;19928;-69
2022/06/19 09:08:28;;;;;;;;;;;26.90;50.20;;;;;;5040308;28;19929;-69
2022/06/19 09:10:58;;;;;;;;;;;27.00;50.10;;;;;;5040196;28;19935;-69
2022/06/19 09:13:42;;;;;;;;;;;27.00;49.90;;;;;;5038948;28;19929;-67
2022/06/19 09:16:13;;;;;;;;;;;27.00;49.60;;;;;;5037727;28;19940;-70
2022/06/19 09:18:56;;;;;;;;;;;27.10;49.20;;;;;;5036292;28;19928;-71
2022/06/19 09:21:27;;;;;;;;;;;27.20;48.60;;;;;;5041210;28;19928;-70
2022/06/19 09:24:01;;;;;;;;;;;27.20;48.60;;;;;;5037228;28;19929;-70
2022/06/19 09:26:32;;;;;;;;;;;27.30;48.40;;;;;;5040463;28;19928;-69
2022/06/19 09:29:02;;;;;;;;;;;27.40;48.00;;;;;;5036978;28;19933;-72
2022/06/19 09:31:31;;;;;;;;;;;27.40;47.80;;;;;;5037351;28;20027;-69
2022/06/19 09:34:02;;;;;;;;;;;27.50;47.30;;;;;;5039803;28;19933;-69
2022/06/19 09:36:31;;;;;;;;;;;27.50;47.30;;;;;;5044011;28;19944;-70
2022/06/19 09:39:01;;;;;;;;;;;27.60;47.20;;;;;;5042323;28;19936;-69
2022/06/19 09:41:32;;;;;;;;;;;27.70;46.90;;;;;;5045104;28;20483;-68
2022/06/19 09:44:03;;;;;;;;;;;27.80;47.10;;;;;;5043501;28;19963;-72
2022/06/19 09:46:34;;;;;;;;;;;27.80;46.80;;;;;;5042549;28;19929;-70
2022/06/19 09:49:06;;;;;;;;;;;27.90;46.70;;;;;;5039295;28;19928;-69
2022/06/19 09:51:35;;;;;;;;;;;28.00;46.80;;;;;;5042382;28;20678;-69
2022/06/19 09:54:05;;;;;;;;;;;28.00;46.70;;;;;;5043420;28;20350;-71
2022/06/19 09:56:35;;;;;;;;;;;28.10;46.30;;;;;;5044657;28;19940;-71
2022/06/19 09:59:04;;;;;;;;;;;28.10;46.20;;;;;;5042706;28;19936;-72
2022/06/19 10:01:30;;;;;;;;;;;28.20;46.40;;;;;;5042928;28;19933;-70
2022/06/19 10:04:00;;;;;;;;;;;28.30;46.00;;;;;;5044406;28;20356;-70
2022/06/19 10:06:33;;;;;;;;;;;28.30;45.90;;;;;;5042660;28;19937;-69
2022/06/19 10:09:02;;;;;;;;;;;28.50;46.20;;;;;;5040793;28;20029;-69
2022/06/19 10:11:30;;;;;;;;;;;28.50;46.20;;;;;;5044385;28;19933;-71
2022/06/19 10:14:00;;;;;;;;;;;28.60;46.00;;;;;;5044209;28;19936;-68
2022/06/19 10:16:28;;;;;;;;;;;28.70;46.00;;;;;;5044752;28;19928;-70
2022/06/19 10:18:56;;;;;;;;;;;28.80;45.90;;;;;;5043892;28;19945;-68
2022/06/19 10:24:08;;;;;;;;;;;28.90;45.70;;;;;;5008884;28;19925;-70
2022/06/19 10:26:41;;;;;;;;;;;29.00;45.50;;;;;;5039332;28;20324;-70
2022/06/19 10:29:12;;;;;;;;;;;29.10;45.40;;;;;;5043113;28;19960;-69
2022/06/19 10:31:46;;;;;;;;;;;29.10;45.40;;;;;;5039788;28;19936;-69
2022/06/19 10:34:18;;;;;;;;;;;29.20;45.40;;;;;;5043377;28;19964;-69
2022/06/19 10:36:48;;;;;;;;;;;29.30;45.50;;;;;;5042116;28;19936;-69
2022/06/19 10:39:28;;;;;;;;;;;29.30;45.20;;;;;;5043721;28;20298;-69
2022/06/19 10:42:04;;;;;;;;;;;29.40;45.20;;;;;;5040939;28;19937;-71
2022/06/19 10:44:38;;;;;;;;;;;29.50;45.20;;;;;;5042658;28;19940;-70
2022/06/19 10:47:09;;;;;;;;;;;29.50;45.20;;;;;;5038163;28;20136;-72
2022/06/19 10:49:40;;;;;;;;;;;29.60;45.40;;;;;;5038012;28;19958;-68
2022/06/19 10:52:10;;;;;;;;;;;29.70;45.10;;;;;;5041659;28;19951;-69
2022/06/19 10:54:50;;;;;;;;;;;29.80;44.80;;;;;;5041195;28;20002;-69
2022/06/19 10:57:21;;;;;;;;;;;29.80;44.90;;;;;;5042106;28;19929;-74
2022/06/19 10:59:47;;;;;;;;;;;29.90;44.80;;;;;;5039478;28;19933;-71
2022/06/19 11:05:07;;;;;;;;;;;30.00;44.70;;;;;;5040314;28;19940;-71
2022/06/19 11:07:34;;;;;;;;;;;30.10;44.50;;;;;;5043142;28;19929;-69
2022/06/19 11:10:05;;;;;;;;;;;30.10;44.40;;;;;;5041081;28;19932;-69
2022/06/19 11:12:33;;;;;;;;;;;30.20;44.30;;;;;;5041490;28;19940;-72
2022/06/19 11:15:01;;;;;;;;;;;30.30;44.30;;;;;;5043180;28;20019;-71
2022/06/19 11:17:33;;;;;;;;;;;30.40;44.40;;;;;;5040600;28;20427;-69
2022/06/19 11:20:18;;;;;;;;;;;30.40;44.20;;;;;;5043578;28;19979;-70
2022/06/19 11:22:45;;;;;;;;;;;30.50;44.10;;;;;;5039196;28;20627;-72
2022/06/19 11:25:30;;;;;;;;;;;30.60;44.10;;;;;;5034647;28;19933;-70
2022/06/19 11:28:00;;;;;;;;;;;30.60;44.00;;;;;;5042651;28;19928;-69
2022/06/19 11:30:28;;;;;;;;;;;30.70;43.90;;;;;;5042437;28;20297;-69
2022/06/19 11:32:55;;;;;;;;;;;30.80;43.60;;;;;;5036587;28;20551;-69
2022/06/19 11:35:22;;;;;;;;;;;30.80;43.50;;;;;;5042611;28;19933;-69
2022/06/19 11:37:51;;;;;;;;;;;30.90;43.30;;;;;;5042876;28;19932;-69
2022/06/19 11:40:19;;;;;;;;;;;31.00;43.20;;;;;;5040354;28;20019;-68
2022/06/19 11:42:49;;;;;;;;;;;31.00;42.70;;;;;;5043755;28;19935;-72
2022/06/19 11:45:24;;;;;;;;;;;31.10;42.60;;;;;;5042168;28;19951;-72
2022/06/19 11:47:59;;;;;;;;;;;31.10;42.60;;;;;;5038862;28;19933;-69
2022/06/19 11:50:27;;;;;;;;;;;31.20;41.60;;;;;;5038664;28;19929;-69
2022/06/19 11:52:55;;;;;;;;;;;31.20;42.10;;;;;;5039902;28;20043;-69
2022/06/19 11:55:27;;;;;;;;;;;31.30;42.20;;;;;;5039696;28;19933;-70
2022/06/19 11:57:57;;;;;;;;;;;31.30;42.20;;;;;;5039656;28;20648;-71
2022/06/19 12:00:26;;;;;;;;;;;31.40;42.20;;;;;;5039740;28;19929;-68
2022/06/19 12:02:54;;;;;;;;;;;31.40;42.20;;;;;;5040163;28;19932;-69
2022/06/19 12:05:23;;;;;;;;;;;31.50;42.00;;;;;;5037085;28;19934;-70
2022/06/19 12:07:49;;;;;;;;;;;31.60;41.60;;;;;;5040714;28;19940;-69
2022/06/19 12:10:20;;;;;;;;;;;31.60;41.50;;;;;;5039164;28;19933;-71
2022/06/19 12:12:52;;;;;;;;;;;31.70;41.60;;;;;;5040480;28;19936;-72
2022/06/19 12:15:25;;;;;;;;;;;31.80;41.60;;;;;;5039030;28;19964;-70
2022/06/19 12:17:56;;;;;;;;;;;31.80;41.50;;;;;;5040210;28;20421;-69
2022/06/19 12:20:25;;;;;;;;;;;31.80;41.00;;;;;;5040673;28;20686;-70
2022/06/19 12:22:53;;;;;;;;;;;31.90;40.70;;;;;;5041843;28;20552;-70
2022/06/19 12:25:27;;;;;;;;;;;31.90;40.60;;;;;;5040956;28;20395;-69
2022/06/19 12:27:58;;;;;;;;;;;32.00;40.60;;;;;;5041628;28;20501;-71
2022/06/19 12:30:28;;;;;;;;;;;32.00;40.40;;;;;;5039866;28;19944;-69
2022/06/19 12:32:57;;;;;;;;;;;32.10;40.40;;;;;;5039731;28;19929;-69
2022/06/19 12:35:28;;;;;;;;;;;32.10;40.30;;;;;;5041845;28;19933;-69
2022/06/19 12:37:54;;;;;;;;;;;32.20;40.10;;;;;;5042457;28;19932;-69
2022/06/19 12:40:23;;;;;;;;;;;32.20;40.20;;;;;;5042477;28;19933;-69
2022/06/19 12:42:54;;;;;;;;;;;32.30;40.30;;;;;;5042760;28;19932;-67
2022/06/19 12:45:29;;;;;;;;;;;32.30;40.20;;;;;;5041356;28;19936;-70
2022/06/19 12:47:59;;;;;;;;;;;32.40;39.90;;;;;;5041015;28;19974;-70
2022/06/19 12:50:42;;;;;;;;;;;32.50;39.90;;;;;;5040932;28;19936;-69
2022/06/19 12:53:18;;;;;;;;;;;32.50;40.00;;;;;;5041108;28;20011;-68
2022/06/19 12:55:52;;;;;;;;;;;32.60;40.00;;;;;;5039696;28;19935;-70
2022/06/19 12:58:42;;;;;;;;;;;32.60;40.00;;;;;;5041553;28;19928;-69
2022/06/19 13:01:14;;;;;;;;;;;32.70;40.10;;;;;;5024346;28;19925;-67
2022/06/19 13:03:58;;;;;;;;;;;32.70;40.20;;;;;;5041059;28;20535;-65
2022/06/19 13:06:30;;;;;;;;;;;32.80;39.70;;;;;;5022894;28;20490;-67
2022/06/19 13:09:02;;;;;;;;;;;32.90;39.70;;;;;;5043160;28;19928;-67
2022/06/19 13:11:35;;;;;;;;;;;33.00;39.60;;;;;;5043160;28;19995;-69
2022/06/19 13:14:08;;;;;;;;;;;32.90;39.40;;;;;;5046110;28;19929;-66
2022/06/19 13:16:39;;;;;;;;;;;33.00;39.40;;;;;;5042753;28;19924;-69
2022/06/19 13:19:11;;;;;;;;;;;33.10;39.10;;;;;;5045156;28;19928;-67
2022/06/19 13:21:44;;;;;;;;;;;33.10;39.00;;;;;;5044019;28;19940;-67
2022/06/19 13:24:19;;;;;;;;;;;33.20;39.70;;;;;;5043850;28;19932;-67
2022/06/19 13:29:40;;;;;;;;;;;33.30;39.30;;;;;;5045442;28;20300;-68
2022/06/19 13:32:11;;;;;;;;;;;33.40;39.20;;;;;;5044719;28;19937;-68
2022/06/19 13:34:43;;;;;;;;;;;33.40;38.80;;;;;;5043739;28;19944;-66
2022/06/19 13:37:15;;;;;;;;;;;33.50;38.90;;;;;;5045685;28;19928;-66
2022/06/19 13:39:45;;;;;;;;;;;33.60;39.20;;;;;;5044714;28;20321;-70
2022/06/19 13:42:27;;;;;;;;;;;33.60;39.20;;;;;;5044537;28;19933;-68
2022/06/19 13:44:59;;;;;;;;;;;33.70;38.90;;;;;;5044379;28;20419;-69
2022/06/19 13:47:31;;;;;;;;;;;33.70;38.70;;;;;;5043170;28;19929;-67
2022/06/19 13:49:59;;;;;;;;;;;33.80;38.90;;;;;;5045990;28;19940;-67
2022/06/19 13:52:37;;;;;;;;;;;33.90;38.60;;;;;;5042934;28;19933;-68
2022/06/19 13:55:05;;;;;;;;;;;33.90;38.60;;;;;;5042994;28;19928;-69
2022/06/19 13:57:37;;;;;;;;;;;34.00;38.40;;;;;;5045612;28;19932;-66
2022/06/19 14:00:13;;;;;;;;;;;34.00;38.10;;;;;;5044135;28;20003;-70
2022/06/19 14:02:44;;;;;;;;;;;34.10;38.00;;;;;;5042157;28;19929;-70
2022/06/19 14:05:15;;;;;;;;;;;34.20;37.50;;;;;;5043177;28;20411;-68
2022/06/19 14:07:54;;;;;;;;;;;34.30;37.20;;;;;;5044518;28;19940;-67
2022/06/19 14:10:26;;;;;;;;;;;34.30;37.10;;;;;;5042636;28;20173;-67
2022/06/19 14:12:55;;;;;;;;;;;34.30;37.10;;;;;;5041273;28;19929;-68
2022/06/19 14:15:27;;;;;;;;;;;34.40;37.10;;;;;;5040853;28;19929;-67
2022/06/19 14:17:57;;;;;;;;;;;34.50;36.80;;;;;;5042637;28;19935;-69
2022/06/19 14:20:31;;;;;;;;;;;34.50;36.60;;;;;;5043116;28;19933;-69
2022/06/19 14:23:03;;;;;;;;;;;34.60;36.10;;;;;;5043494;28;20014;-67
2022/06/19 14:25:32;;;;;;;;;;;34.70;36.00;;;;;;5040841;28;19932;-68
2022/06/19 14:28:07;;;;;;;;;;;34.70;35.70;;;;;;5043654;28;19928;-71
2022/06/19 14:30:36;;;;;;;;;;;34.80;35.90;;;;;;5042737;28;19933;-69
2022/06/19 14:33:03;;;;;;;;;;;34.80;36.10;;;;;;5039605;28;19925;-68
2022/06/19 14:35:34;;;;;;;;;;;34.90;36.20;;;;;;5043295;28;20351;-69
2022/06/19 14:38:19;;;;;;;;;;;34.90;35.60;;;;;;5043484;28;19929;-69
2022/06/19 14:41:01;;;;;;;;;;;35.00;35.40;;;;;;5043404;28;20030;-70